createdAt,value
2023-05-14T00:01:09.066Z,11.96
2023-05-14T00:04:12.022Z,11.91
2023-05-14T00:07:15.069Z,11.92
2023-05-14T00:10:19.406Z,11.93
2023-05-14T00:13:22.243Z,11.94
2023-05-14T00:16:25.048Z,12.00
2023-05-14T00:19:27.998Z,11.90
2023-05-14T00:22:30.723Z,11.93
2023-05-14T00:25:33.507Z,11.90
2023-05-14T00:28:36.209Z,11.94
2023-05-14T00:31:39.080Z,11.89
2023-05-14T00:34:41.862Z,11.84
2023-05-14T00:37:44.705Z,11.86
2023-05-14T00:40:51.491Z,11.84
2023-05-14T00:43:54.344Z,11.84
2023-05-14T00:46:57.222Z,11.85
2023-05-14T00:50:00.013Z,11.80
2023-05-14T00:53:03.038Z,11.83
2023-05-14T00:56:08.444Z,11.80
2023-05-14T00:59:11.280Z,11.84
2023-05-14T01:02:14.033Z,11.81
2023-05-14T01:05:17.494Z,11.80
2023-05-14T01:08:29.844Z,11.80
2023-05-14T01:11:42.510Z,11.78
2023-05-14T01:15:12.055Z,11.80
2023-05-14T01:18:18.816Z,11.77
2023-05-14T01:21:43.710Z,11.78
2023-05-14T01:24:46.656Z,11.78
2023-05-14T01:27:55.254Z,11.75
2023-05-14T01:31:09.745Z,11.72
2023-05-14T01:34:14.162Z,11.71
2023-05-14T01:37:18.187Z,11.68
2023-05-14T01:40:21.505Z,11.66
2023-05-14T01:43:24.674Z,11.67
2023-05-14T01:46:32.107Z,11.65
2023-05-14T01:49:37.361Z,11.63
2023-05-14T01:52:40.169Z,11.64
2023-05-14T01:55:42.876Z,11.63
2023-05-14T01:58:45.727Z,11.61
2023-05-14T02:01:48.753Z,11.63
2023-05-14T02:04:52.401Z,11.61
2023-05-14T02:07:55.202Z,11.61
2023-05-14T02:10:58.015Z,11.61
2023-05-14T02:14:01.965Z,11.60
2023-05-14T02:17:04.940Z,11.59
2023-05-14T02:20:08.307Z,11.58
2023-05-14T02:23:11.058Z,11.58
2023-05-14T02:26:13.810Z,11.57
2023-05-14T02:29:16.537Z,11.59
2023-05-14T02:32:19.374Z,11.56
2023-05-14T02:35:22.218Z,11.52
2023-05-14T02:38:26.797Z,11.53
2023-05-14T02:41:32.515Z,11.50
2023-05-14T02:44:35.277Z,11.51
2023-05-14T02:47:38.282Z,11.51
2023-05-14T02:50:41.327Z,11.47
2023-05-14T02:53:44.205Z,11.46
2023-05-14T02:56:47.273Z,11.45
2023-05-14T02:59:49.988Z,11.44
2023-05-14T03:02:53.463Z,11.42
2023-05-14T03:05:56.912Z,11.40
2023-05-14T03:08:59.702Z,11.39
2023-05-14T03:12:02.566Z,11.37
2023-05-14T03:15:05.663Z,11.37
2023-05-14T03:18:08.373Z,11.38
2023-05-14T03:21:11.242Z,11.38
2023-05-14T03:24:14.115Z,11.41
2023-05-14T03:27:16.978Z,11.40
2023-05-14T03:30:19.712Z,11.41
2023-05-14T03:33:23.012Z,11.40
2023-05-14T03:36:25.937Z,11.40
2023-05-14T03:39:28.893Z,11.40
2023-05-14T03:42:32.349Z,11.41
2023-05-14T03:45:35.677Z,11.41
2023-05-14T03:48:38.458Z,11.43
2023-05-14T03:51:41.209Z,11.43
2023-05-14T03:54:44.018Z,11.45
2023-05-14T03:57:47.819Z,11.46
2023-05-14T04:00:50.957Z,11.47
2023-05-14T04:03:53.873Z,11.46
2023-05-14T04:06:57.169Z,11.48
2023-05-14T04:10:04.014Z,11.49
2023-05-14T04:13:07.268Z,11.49
2023-05-14T04:16:11.671Z,11.49
2023-05-14T04:19:14.518Z,11.49
2023-05-14T04:22:17.933Z,11.48
2023-05-14T04:25:20.948Z,11.49
2023-05-14T04:28:23.728Z,11.50
2023-05-14T04:31:26.446Z,11.50
2023-05-14T04:34:29.172Z,11.51
2023-05-14T04:37:33.081Z,11.54
2023-05-14T04:40:35.872Z,11.59
2023-05-14T04:43:38.587Z,11.59
2023-05-14T04:46:41.415Z,11.64
2023-05-14T04:49:44.143Z,11.73
2023-05-14T04:52:46.904Z,11.71
2023-05-14T04:55:49.595Z,11.70
2023-05-14T04:58:52.289Z,11.74
2023-05-14T05:01:55.103Z,11.70
2023-05-14T05:04:57.812Z,11.68
2023-05-14T05:08:00.528Z,11.75
2023-05-14T05:11:03.250Z,11.64
2023-05-14T05:14:06.000Z,11.66
2023-05-14T05:17:08.788Z,11.64
2023-05-14T05:20:12.146Z,11.69
2023-05-14T05:23:14.937Z,11.66
2023-05-14T05:26:17.714Z,11.67
2023-05-14T05:29:20.481Z,11.67
2023-05-14T05:32:23.553Z,11.67
2023-05-14T05:35:26.324Z,11.64
2023-05-14T05:38:29.170Z,11.68
2023-05-14T05:41:31.912Z,11.71
2023-05-14T05:44:34.697Z,11.64
2023-05-14T05:47:37.491Z,11.66
2023-05-14T05:50:40.303Z,11.61
2023-05-14T05:53:43.085Z,11.58
2023-05-14T05:56:45.847Z,11.66
2023-05-14T05:59:48.742Z,11.69
2023-05-14T06:02:51.575Z,11.71
2023-05-14T06:05:54.350Z,11.75
2023-05-14T06:08:57.059Z,11.70
2023-05-14T06:11:59.728Z,11.76
2023-05-14T06:15:02.518Z,11.79
2023-05-14T06:18:05.906Z,11.92
2023-05-14T06:21:08.728Z,11.79
2023-05-14T06:24:11.721Z,11.79
2023-05-14T06:27:14.449Z,11.88
2023-05-14T06:30:17.213Z,11.81
2023-05-14T06:33:23.580Z,11.85
2023-05-14T06:36:26.452Z,11.81
2023-05-14T06:39:29.213Z,11.85
2023-05-14T06:42:31.949Z,11.88
2023-05-14T06:45:34.660Z,11.99
2023-05-14T06:48:37.521Z,12.10
2023-05-14T06:51:40.898Z,12.00
2023-05-14T06:54:43.618Z,12.00
2023-05-14T06:57:46.279Z,12.01
2023-05-14T07:00:48.956Z,11.95
2023-05-14T07:03:51.785Z,11.92
2023-05-14T07:06:54.606Z,11.91
2023-05-14T07:09:57.381Z,11.90
2023-05-14T07:13:00.195Z,11.83
2023-05-14T07:16:02.929Z,11.75
2023-05-14T07:19:05.781Z,11.82
2023-05-14T07:22:08.520Z,11.97
2023-05-14T07:25:11.348Z,11.93
2023-05-14T07:28:14.156Z,12.07
2023-05-14T07:31:16.957Z,11.88
2023-05-14T07:34:19.778Z,11.85
2023-05-14T07:37:23.972Z,11.73
2023-05-14T07:40:27.522Z,11.62
2023-05-14T07:43:30.389Z,11.58
2023-05-14T07:46:33.158Z,11.55
2023-05-14T07:49:36.154Z,11.51
2023-05-14T07:52:39.499Z,11.44
2023-05-14T07:55:42.527Z,11.44
2023-05-14T07:58:45.260Z,11.44
2023-05-14T08:01:48.047Z,11.43
2023-05-14T08:04:50.799Z,11.36
2023-05-14T08:07:53.593Z,11.41
2023-05-14T08:10:56.437Z,11.39
2023-05-14T08:13:59.211Z,11.45
2023-05-14T08:17:02.020Z,11.43
2023-05-14T08:20:06.780Z,11.41
2023-05-14T08:23:10.547Z,11.53
2023-05-14T08:26:13.284Z,11.48
2023-05-14T08:29:16.785Z,11.38
2023-05-14T08:32:23.728Z,11.41
2023-05-14T08:35:26.973Z,11.42
2023-05-14T08:38:29.755Z,11.51
2023-05-14T08:41:32.726Z,11.55
2023-05-14T08:45:02.324Z,11.56
2023-05-14T08:48:09.176Z,11.57
2023-05-14T08:51:12.998Z,11.62
2023-05-14T08:54:19.350Z,11.51
2023-05-14T08:57:25.030Z,11.52
2023-05-14T09:00:27.931Z,11.53
2023-05-14T09:03:31.602Z,11.48
2023-05-14T09:06:38.020Z,11.38
2023-05-14T09:09:41.563Z,11.35
2023-05-14T09:12:44.625Z,11.37
2023-05-14T09:15:50.809Z,11.40
2023-05-14T09:18:53.831Z,11.42
2023-05-14T09:22:01.141Z,11.36
2023-05-14T09:25:09.694Z,11.35
2023-05-14T09:28:12.619Z,11.33
2023-05-14T09:31:15.533Z,11.39
2023-05-14T09:34:25.424Z,11.41
2023-05-14T09:37:28.797Z,11.42
2023-05-14T09:40:31.513Z,11.44
2023-05-14T09:43:34.310Z,11.46
2023-05-14T09:46:37.052Z,11.58
2023-05-14T09:49:40.196Z,11.57
2023-05-14T09:52:44.155Z,11.59
2023-05-14T09:55:47.457Z,11.57
2023-05-14T09:58:50.561Z,11.62
2023-05-14T10:01:54.414Z,11.58
2023-05-14T10:05:02.842Z,11.61
2023-05-14T10:08:20.190Z,11.66
2023-05-14T10:11:27.378Z,11.69
2023-05-14T10:14:39.173Z,11.76
2023-05-14T10:17:47.486Z,11.82
2023-05-14T10:21:01.763Z,11.83
2023-05-14T10:24:06.081Z,11.92
2023-05-14T10:27:09.198Z,11.94
2023-05-14T10:30:15.291Z,11.97
2023-05-14T10:33:18.916Z,12.03
2023-05-14T10:36:22.512Z,12.07
2023-05-14T10:40:00.408Z,12.08
2023-05-14T10:43:04.555Z,12.08
2023-05-14T10:46:10.069Z,12.30
2023-05-14T10:49:12.908Z,12.29
2023-05-14T10:52:20.345Z,12.22
2023-05-14T10:55:23.172Z,12.05
2023-05-14T10:58:26.220Z,12.05
2023-05-14T11:01:29.008Z,12.12
2023-05-14T11:04:31.875Z,12.15
2023-05-14T11:07:36.831Z,12.15
2023-05-14T11:10:39.853Z,12.16
2023-05-14T11:13:43.065Z,12.12
2023-05-14T11:16:47.448Z,12.19
2023-05-14T11:19:51.234Z,12.23
2023-05-14T11:22:54.111Z,12.29
2023-05-14T11:25:57.147Z,12.24
2023-05-14T11:29:00.206Z,12.22
2023-05-14T11:32:06.123Z,12.23
2023-05-14T11:35:09.333Z,12.26
2023-05-14T11:38:16.635Z,12.34
2023-05-14T11:41:21.679Z,12.33
2023-05-14T11:44:24.700Z,12.27
2023-05-14T11:47:29.930Z,12.33
2023-05-14T11:50:36.660Z,12.28
2023-05-14T11:53:39.406Z,12.30
2023-05-14T11:56:42.421Z,12.27
2023-05-14T11:59:45.998Z,12.28
2023-05-14T12:02:50.027Z,12.31
2023-05-14T12:06:00.575Z,12.28
2023-05-14T12:09:05.571Z,12.34
2023-05-14T12:12:12.467Z,12.32
2023-05-14T12:15:17.157Z,12.34
2023-05-14T12:18:24.495Z,12.47
2023-05-14T12:21:29.431Z,12.54
2023-05-14T12:24:32.397Z,12.50
2023-05-14T12:27:37.807Z,12.53
2023-05-14T12:30:41.360Z,12.52
2023-05-14T12:33:44.055Z,12.52
2023-05-14T12:36:46.794Z,12.54
2023-05-14T12:39:49.519Z,12.61
2023-05-14T12:42:52.239Z,12.60
2023-05-14T12:45:55.692Z,12.61
2023-05-14T12:48:58.508Z,12.67
2023-05-14T12:52:19.475Z,12.73
2023-05-14T12:55:23.991Z,12.81
2023-05-14T12:58:26.765Z,12.77
2023-05-14T13:01:29.643Z,12.74
2023-05-14T13:04:32.611Z,12.79
2023-05-14T13:07:36.402Z,12.73
2023-05-14T13:10:39.112Z,12.73
2023-05-14T13:13:41.928Z,12.73
2023-05-14T13:16:44.770Z,12.80
2023-05-14T13:19:47.472Z,12.90
2023-05-14T13:22:50.183Z,13.07
2023-05-14T13:25:52.933Z,13.38
2023-05-14T13:28:55.793Z,13.25
2023-05-14T13:31:58.776Z,13.33
2023-05-14T13:35:01.491Z,13.22
2023-05-14T13:38:04.262Z,13.38
2023-05-14T13:41:07.331Z,13.41
2023-05-14T13:44:10.190Z,13.47
2023-05-14T13:47:12.891Z,13.57
2023-05-14T13:50:15.718Z,13.45
2023-05-14T13:53:20.208Z,13.63
2023-05-14T13:56:23.023Z,13.66
2023-05-14T13:59:25.898Z,13.67
2023-05-14T14:02:28.713Z,13.52
2023-05-14T14:05:31.875Z,13.48
2023-05-14T14:08:34.707Z,13.54
2023-05-14T14:11:37.474Z,13.48
2023-05-14T14:14:40.220Z,13.45
2023-05-14T14:17:43.226Z,13.57
2023-05-14T14:20:46.209Z,13.66
2023-05-14T14:23:49.060Z,13.72
2023-05-14T14:26:51.819Z,13.73
2023-05-14T14:29:54.635Z,13.72
2023-05-14T14:32:57.441Z,13.88
2023-05-14T14:36:00.134Z,13.97
2023-05-14T14:39:02.891Z,13.99
2023-05-14T14:42:07.574Z,14.13
2023-05-14T14:45:11.099Z,14.29
2023-05-14T14:48:25.603Z,14.19
2023-05-14T14:51:28.456Z,14.19
2023-05-14T14:54:31.201Z,14.22
2023-05-14T14:57:33.911Z,14.29
2023-05-14T15:00:36.789Z,14.33
2023-05-14T15:03:39.612Z,14.25
2023-05-14T15:06:42.458Z,14.28
2023-05-14T15:09:45.203Z,14.14
2023-05-14T15:12:48.427Z,14.26
2023-05-14T15:15:52.682Z,14.18
2023-05-14T15:18:55.612Z,14.22
2023-05-14T15:21:58.760Z,14.19
2023-05-14T15:25:01.490Z,14.28
2023-05-14T15:28:06.519Z,14.19
2023-05-14T15:31:09.393Z,14.07
2023-05-14T15:34:12.145Z,14.21
2023-05-14T15:37:14.875Z,14.18
2023-05-14T15:40:19.624Z,14.26
2023-05-14T15:43:22.399Z,14.23
2023-05-14T15:46:25.851Z,14.28
2023-05-14T15:49:28.668Z,14.30
2023-05-14T15:52:31.775Z,14.33
2023-05-14T15:55:34.655Z,14.23
2023-05-14T15:58:37.434Z,14.32
2023-05-14T16:01:40.757Z,14.29
2023-05-14T16:04:45.393Z,14.57
2023-05-14T16:07:48.202Z,14.66
2023-05-14T16:10:50.945Z,14.64
2023-05-14T16:13:53.678Z,14.78
2023-05-14T16:16:56.465Z,15.01
2023-05-14T16:20:01.009Z,15.02
2023-05-14T16:23:04.056Z,15.28
2023-05-14T16:26:06.846Z,15.21
2023-05-14T16:29:09.748Z,15.20
2023-05-14T16:32:12.697Z,15.22
2023-05-14T16:35:16.913Z,15.09
2023-05-14T16:38:19.796Z,15.04
2023-05-14T16:41:22.538Z,15.11
2023-05-14T16:44:25.280Z,15.08
2023-05-14T16:47:28.055Z,15.14
2023-05-14T16:50:30.913Z,15.06
2023-05-14T16:53:33.665Z,15.04
2023-05-14T16:56:36.888Z,15.08
2023-05-14T16:59:39.685Z,15.21
2023-05-14T17:02:43.094Z,15.36
2023-05-14T17:05:46.164Z,15.23
2023-05-14T17:08:49.208Z,15.19
2023-05-14T17:11:51.934Z,15.30
2023-05-14T17:14:54.726Z,15.22
2023-05-14T17:17:57.756Z,15.13
2023-05-14T17:21:00.486Z,15.16
2023-05-14T17:24:03.282Z,15.12
2023-05-14T17:27:07.572Z,15.09
2023-05-14T17:30:10.805Z,15.05
2023-05-14T17:33:13.545Z,15.06
2023-05-14T17:36:16.346Z,15.00
2023-05-14T17:39:19.059Z,14.96
2023-05-14T17:42:21.765Z,14.91
2023-05-14T17:45:24.925Z,14.86
2023-05-14T17:48:28.155Z,14.77
2023-05-14T17:51:31.711Z,14.71
2023-05-14T17:54:34.503Z,14.67
2023-05-14T17:57:37.791Z,14.62
2023-05-14T18:00:40.915Z,14.60
2023-05-14T18:03:43.951Z,14.56
2023-05-14T18:06:46.780Z,14.53
2023-05-14T18:09:49.517Z,14.50
2023-05-14T18:12:52.429Z,14.48
2023-05-14T18:15:56.641Z,14.42
2023-05-14T18:19:02.905Z,14.35
2023-05-14T18:22:05.896Z,14.28
2023-05-14T18:25:09.755Z,14.23
2023-05-14T18:28:13.069Z,14.17
2023-05-14T18:31:16.184Z,14.10
2023-05-14T18:34:18.992Z,14.05
2023-05-14T18:37:21.748Z,14.01
2023-05-14T18:40:24.545Z,13.97
2023-05-14T18:43:27.669Z,13.96
2023-05-14T18:46:30.745Z,13.95
2023-05-14T18:49:33.613Z,13.97
2023-05-14T18:52:36.573Z,13.95
2023-05-14T18:55:39.883Z,14.05
2023-05-14T18:58:42.802Z,14.12
2023-05-14T19:01:45.887Z,14.15
2023-05-14T19:04:52.842Z,14.15
2023-05-14T19:07:57.153Z,14.30
2023-05-14T19:10:59.917Z,14.31
2023-05-14T19:14:03.008Z,14.36
2023-05-14T19:17:06.340Z,14.35
2023-05-14T19:20:09.855Z,14.30
2023-05-14T19:23:12.921Z,14.28
2023-05-14T19:26:16.023Z,14.30
2023-05-14T19:29:18.724Z,14.27
2023-05-14T19:32:21.739Z,14.19
2023-05-14T19:35:24.767Z,14.22
2023-05-14T19:38:27.765Z,14.22
2023-05-14T19:41:30.739Z,14.24
2023-05-14T19:44:33.850Z,14.22
2023-05-14T19:47:36.661Z,14.25
2023-05-14T19:50:39.444Z,14.15
2023-05-14T19:53:42.195Z,14.14
2023-05-14T19:56:45.118Z,14.15
2023-05-14T19:59:48.151Z,14.09
2023-05-14T20:02:51.039Z,14.04
2023-05-14T20:05:55.044Z,14.10
2023-05-14T20:08:57.808Z,14.08
2023-05-14T20:12:00.543Z,14.01
2023-05-14T20:15:04.291Z,14.03
2023-05-14T20:18:07.162Z,13.99
2023-05-14T20:21:10.232Z,13.86
2023-05-14T20:24:12.958Z,13.82
2023-05-14T20:27:15.768Z,13.83
2023-05-14T20:30:19.403Z,13.81
2023-05-14T20:33:22.200Z,13.84
2023-05-14T20:36:25.728Z,13.82
2023-05-14T20:39:28.432Z,13.82
2023-05-14T20:42:31.243Z,13.79
2023-05-14T20:45:34.010Z,13.85
2023-05-14T20:48:36.749Z,13.78
2023-05-14T20:51:39.579Z,13.70
2023-05-14T20:54:43.198Z,13.71
2023-05-14T20:57:45.945Z,13.68
2023-05-14T21:00:48.674Z,13.66
2023-05-14T21:03:51.478Z,13.68
2023-05-14T21:06:54.431Z,13.73
2023-05-14T21:09:57.225Z,13.78
2023-05-14T21:13:00.049Z,13.72
2023-05-14T21:16:03.139Z,13.65
2023-05-14T21:19:06.061Z,13.56
2023-05-14T21:22:08.916Z,13.48
2023-05-14T21:25:11.678Z,13.51
2023-05-14T21:28:14.442Z,13.46
2023-05-14T21:31:17.399Z,13.39
2023-05-14T21:34:20.700Z,13.35
2023-05-14T21:37:23.623Z,13.37
2023-05-14T21:40:26.336Z,13.39
2023-05-14T21:43:29.031Z,13.48
2023-05-14T21:46:32.189Z,13.50
2023-05-14T21:49:35.796Z,13.49
2023-05-14T21:52:38.742Z,13.53
2023-05-14T21:55:41.708Z,13.48
2023-05-14T21:58:44.821Z,13.57
2023-05-14T22:02:05.543Z,13.49
2023-05-14T22:05:09.612Z,13.46
2023-05-14T22:08:12.323Z,13.55
2023-05-14T22:11:15.077Z,13.54
2023-05-14T22:14:17.782Z,13.52
2023-05-14T22:17:20.599Z,13.53
2023-05-14T22:20:23.298Z,13.43
2023-05-14T22:23:25.961Z,13.50
2023-05-14T22:26:28.692Z,13.58
2023-05-14T22:29:31.383Z,13.63
2023-05-14T22:32:34.088Z,13.58
2023-05-14T22:35:36.865Z,13.56
2023-05-14T22:38:41.324Z,13.56
2023-05-14T22:41:44.132Z,13.68
2023-05-14T22:44:46.848Z,13.69
2023-05-14T22:47:49.717Z,13.73
2023-05-14T22:50:52.451Z,13.79
2023-05-14T22:53:55.264Z,13.70
2023-05-14T22:56:58.148Z,13.55
2023-05-14T23:00:01.016Z,13.58
2023-05-14T23:03:04.227Z,13.52
2023-05-14T23:06:07.227Z,13.53
2023-05-14T23:09:09.979Z,13.57
2023-05-14T23:12:12.713Z,13.61
2023-05-14T23:15:15.539Z,13.60
2023-05-14T23:18:18.357Z,13.51
2023-05-14T23:21:21.221Z,13.46
2023-05-14T23:24:24.070Z,13.51
2023-05-14T23:27:27.369Z,13.53
2023-05-14T23:30:30.100Z,13.65
2023-05-14T23:33:32.800Z,13.61
2023-05-14T23:36:35.938Z,13.49
2023-05-14T23:39:38.692Z,13.47
2023-05-14T23:42:42.122Z,13.46
2023-05-14T23:45:44.936Z,13.48
2023-05-14T23:48:47.733Z,13.46
2023-05-14T23:51:50.676Z,13.43
2023-05-14T23:54:53.703Z,13.38
2023-05-14T23:57:56.391Z,13.34
